Current Conditions
Nebbioso
Condizioni




Pressure
1008.92 (hPa) - 29.79 (inHG)
Visibility

3.0 (km) - 1.9 (miles)
   Temperature
8  °C
46°F
7  °C
Dewpoint
93  %
 Humidity
   Wind Speed
10  km/h
5  kts
6  mph
2.7  m/s
   Wind Direction
 190°
Due South
   Airport Data
LIPZ
Location Venice Marco Polo 26 km (16.16 mi)
Metar :LIPZ 291320Z 19005KT 3000 BR FEW006 08/07 Q1009 BECMG 6000
Wed 29th January 14:20 pm
   Raw Metar Info
Raw METAR is the most common format in the world for the transmission of observational weather data. It is highly standardized through the International Civil Aviation Organization (ICAO), which allows it to be understood throughout most of the world.
   API Info
Data Provided by
https://www.checkwx.com/weather/LIPZ
   © Info
CSS/SVG/PHP scripts were developed by weather34.com for use in the weather34 template © 2015-2020

Guide Info provided by Metar-Wikipedia